sensor_id;sensor_type;location;lat;lon;timestamp;pressure;altitude;pressure_sealevel;temperature;humidity
76229;BME280;65021;53.174;18.160;2023-01-16T00:01:34;99702.61;;;2.83;79.77
76229;BME280;65021;53.174;18.160;2023-01-16T00:04:01;99705.54;;;2.77;79.88
76229;BME280;65021;53.174;18.160;2023-01-16T00:06:28;99709.89;;;2.70;79.80
76229;BME280;65021;53.174;18.160;2023-01-16T00:08:54;99710.02;;;2.66;79.83
76229;BME280;65021;53.174;18.160;2023-01-16T00:11:24;99709.70;;;2.59;79.92
76229;BME280;65021;53.174;18.160;2023-01-16T00:13:51;99713.08;;;2.52;79.91
76229;BME280;65021;53.174;18.160;2023-01-16T00:16:19;99710.34;;;2.43;79.97
76229;BME280;65021;53.174;18.160;2023-01-16T00:18:47;99714.02;;;2.36;79.98
76229;BME280;65021;53.174;18.160;2023-01-16T00:21:15;99712.77;;;2.32;80.14
76229;BME280;65021;53.174;18.160;2023-01-16T00:23:42;99711.59;;;2.31;79.92
76229;BME280;65021;53.174;18.160;2023-01-16T00:26:09;99711.02;;;2.30;80.01
76229;BME280;65021;53.174;18.160;2023-01-16T00:28:39;99714.83;;;2.28;79.96
76229;BME280;65021;53.174;18.160;2023-01-16T00:31:06;99717.22;;;2.26;79.96
76229;BME280;65021;53.174;18.160;2023-01-16T00:33:33;99720.02;;;2.23;80.03
76229;BME280;65021;53.174;18.160;2023-01-16T00:36:01;99714.47;;;2.20;80.05
76229;BME280;65021;53.174;18.160;2023-01-16T00:38:27;99709.19;;;2.15;80.11
76229;BME280;65021;53.174;18.160;2023-01-16T00:40:54;99711.64;;;2.12;80.00
76229;BME280;65021;53.174;18.160;2023-01-16T00:43:21;99708.67;;;2.15;80.11
76229;BME280;65021;53.174;18.160;2023-01-16T00:45:48;99708.03;;;2.17;80.12
76229;BME280;65021;53.174;18.160;2023-01-16T00:48:15;99709.80;;;2.19;80.04
76229;BME280;65021;53.174;18.160;2023-01-16T00:50:42;99715.77;;;2.21;80.10
76229;BME280;65021;53.174;18.160;2023-01-16T00:53:09;99718.05;;;2.21;80.09
76229;BME280;65021;53.174;18.160;2023-01-16T00:55:35;99716.38;;;2.18;80.06
76229;BME280;65021;53.174;18.160;2023-01-16T00:58:03;99719.84;;;2.16;80.12
76229;BME280;65021;53.174;18.160;2023-01-16T01:00:30;99719.02;;;2.11;80.08
76229;BME280;65021;53.174;18.160;2023-01-16T01:02:57;99716.89;;;2.07;80.12
76229;BME280;65021;53.174;18.160;2023-01-16T01:05:26;99713.17;;;2.05;80.13
76229;BME280;65021;53.174;18.160;2023-01-16T01:07:53;99710.95;;;2.05;80.01
76229;BME280;65021;53.174;18.160;2023-01-16T01:10:20;99712.59;;;2.07;79.98
76229;BME280;65021;53.174;18.160;2023-01-16T01:12:47;99708.88;;;2.07;79.99
76229;BME280;65021;53.174;18.160;2023-01-16T01:15:14;99708.36;;;2.07;79.96
76229;BME280;65021;53.174;18.160;2023-01-16T01:17:41;99710.10;;;2.07;79.96
76229;BME280;65021;53.174;18.160;2023-01-16T01:20:08;99709.65;;;2.05;79.94
76229;BME280;65021;53.174;18.160;2023-01-16T01:22:35;99710.79;;;2.05;79.94
76229;BME280;65021;53.174;18.160;2023-01-16T01:25:01;99711.58;;;2.03;79.89
76229;BME280;65021;53.174;18.160;2023-01-16T01:27:28;99716.57;;;2.00;79.88
76229;BME280;65021;53.174;18.160;2023-01-16T01:29:55;99716.11;;;1.99;80.04
76229;BME280;65021;53.174;18.160;2023-01-16T01:32:24;99712.70;;;1.99;79.95
76229;BME280;65021;53.174;18.160;2023-01-16T01:34:50;99712.53;;;1.99;79.88
76229;BME280;65021;53.174;18.160;2023-01-16T01:37:17;99710.09;;;1.99;79.93
76229;BME280;65021;53.174;18.160;2023-01-16T01:39:44;99710.41;;;2.02;79.99
76229;BME280;65021;53.174;18.160;2023-01-16T01:42:11;99712.99;;;2.00;79.94
76229;BME280;65021;53.174;18.160;2023-01-16T01:45:01;99714.40;;;1.97;79.99
76229;BME280;65021;53.174;18.160;2023-01-16T01:47:36;99713.90;;;1.94;80.00
76229;BME280;65021;53.174;18.160;2023-01-16T01:50:13;99711.68;;;1.89;79.97
76229;BME280;65021;53.174;18.160;2023-01-16T01:52:42;99713.55;;;1.87;80.02
76229;BME280;65021;53.174;18.160;2023-01-16T01:55:10;99717.58;;;1.89;79.99
76229;BME280;65021;53.174;18.160;2023-01-16T01:57:50;99718.13;;;1.92;79.99
76229;BME280;65021;53.174;18.160;2023-01-16T02:00:23;99718.79;;;1.95;79.95
76229;BME280;65021;53.174;18.160;2023-01-16T02:05:37;99715.63;;;1.95;79.98
76229;BME280;65021;53.174;18.160;2023-01-16T02:08:07;99712.88;;;1.91;80.01
76229;BME280;65021;53.174;18.160;2023-01-16T02:10:39;99718.35;;;1.90;80.09
76229;BME280;65021;53.174;18.160;2023-01-16T02:13:07;99714.89;;;1.89;80.14
76229;BME280;65021;53.174;18.160;2023-01-16T02:15:35;99710.84;;;1.86;80.15
76229;BME280;65021;53.174;18.160;2023-01-16T02:18:02;99710.31;;;1.84;80.15
76229;BME280;65021;53.174;18.160;2023-01-16T02:24:14;99712.91;;;1.90;80.24
76229;BME280;65021;53.174;18.160;2023-01-16T02:30:14;99712.58;;;1.97;80.18
76229;BME280;65021;53.174;18.160;2023-01-16T02:35:35;99712.66;;;1.99;80.01
76229;BME280;65021;53.174;18.160;2023-01-16T02:38:20;99709.52;;;1.97;80.08
76229;BME280;65021;53.174;18.160;2023-01-16T02:41:15;99705.55;;;1.94;80.01
76229;BME280;65021;53.174;18.160;2023-01-16T02:44:29;99706.70;;;1.92;80.05
76229;BME280;65021;53.174;18.160;2023-01-16T02:49:34;99704.17;;;1.90;80.04
76229;BME280;65021;53.174;18.160;2023-01-16T02:52:22;99705.84;;;1.88;80.08
76229;BME280;65021;53.174;18.160;2023-01-16T02:55:01;99704.70;;;1.85;80.05
76229;BME280;65021;53.174;18.160;2023-01-16T02:57:34;99707.60;;;1.79;80.14
76229;BME280;65021;53.174;18.160;2023-01-16T03:00:05;99709.96;;;1.72;80.25
76229;BME280;65021;53.174;18.160;2023-01-16T03:02:32;99710.67;;;1.65;80.28
76229;BME280;65021;53.174;18.160;2023-01-16T03:04:59;99709.92;;;1.57;80.32
76229;BME280;65021;53.174;18.160;2023-01-16T03:18:41;99711.73;;;1.39;80.45
76229;BME280;65021;53.174;18.160;2023-01-16T03:23:54;99706.30;;;1.42;80.43
76229;BME280;65021;53.174;18.160;2023-01-16T03:26:41;99705.45;;;1.44;80.53
76229;BME280;65021;53.174;18.160;2023-01-16T03:29:17;99705.36;;;1.47;80.57
76229;BME280;65021;53.174;18.160;2023-01-16T03:32:01;99706.75;;;1.50;80.55
76229;BME280;65021;53.174;18.160;2023-01-16T03:34:55;99704.64;;;1.51;80.64
76229;BME280;65021;53.174;18.160;2023-01-16T03:37:36;99700.34;;;1.53;80.58
76229;BME280;65021;53.174;18.160;2023-01-16T03:40:10;99699.70;;;1.55;80.70
76229;BME280;65021;53.174;18.160;2023-01-16T03:42:52;99698.22;;;1.56;80.66
76229;BME280;65021;53.174;18.160;2023-01-16T03:45:31;99694.63;;;1.59;80.66
76229;BME280;65021;53.174;18.160;2023-01-16T03:48:07;99691.70;;;1.66;80.61
76229;BME280;65021;53.174;18.160;2023-01-16T03:50:38;99688.94;;;1.71;80.48
76229;BME280;65021;53.174;18.160;2023-01-16T03:53:10;99693.54;;;1.74;80.57
76229;BME280;65021;53.174;18.160;2023-01-16T03:56:06;99694.52;;;1.73;80.50
76229;BME280;65021;53.174;18.160;2023-01-16T03:58:39;99696.20;;;1.70;80.60
76229;BME280;65021;53.174;18.160;2023-01-16T04:04:08;99707.39;;;1.65;80.53
76229;BME280;65021;53.174;18.160;2023-01-16T04:12:07;99698.30;;;1.71;80.44
76229;BME280;65021;53.174;18.160;2023-01-16T04:14:34;99692.78;;;1.72;80.63
76229;BME280;65021;53.174;18.160;2023-01-16T04:17:03;99695.22;;;1.73;80.60
76229;BME280;65021;53.174;18.160;2023-01-16T04:19:30;99689.92;;;1.71;80.58
76229;BME280;65021;53.174;18.160;2023-01-16T04:22:05;99689.38;;;1.68;80.59
76229;BME280;65021;53.174;18.160;2023-01-16T04:24:32;99687.20;;;1.64;80.69
76229;BME280;65021;53.174;18.160;2023-01-16T04:26:58;99686.48;;;1.61;80.67
76229;BME280;65021;53.174;18.160;2023-01-16T04:29:25;99687.69;;;1.58;80.72
76229;BME280;65021;53.174;18.160;2023-01-16T04:31:52;99683.36;;;1.57;80.74
76229;BME280;65021;53.174;18.160;2023-01-16T04:34:18;99681.57;;;1.59;80.75
76229;BME280;65021;53.174;18.160;2023-01-16T04:36:45;99680.67;;;1.63;80.65
76229;BME280;65021;53.174;18.160;2023-01-16T04:39:12;99676.91;;;1.66;80.69
76229;BME280;65021;53.174;18.160;2023-01-16T04:41:38;99678.55;;;1.69;80.72
76229;BME280;65021;53.174;18.160;2023-01-16T04:44:08;99680.41;;;1.68;80.66
76229;BME280;65021;53.174;18.160;2023-01-16T04:46:36;99678.89;;;1.66;80.80
76229;BME280;65021;53.174;18.160;2023-01-16T04:49:04;99677.88;;;1.64;80.77
76229;BME280;65021;53.174;18.160;2023-01-16T04:51:32;99675.66;;;1.62;80.84
76229;BME280;65021;53.174;18.160;2023-01-16T04:53:58;99673.02;;;1.59;80.86
76229;BME280;65021;53.174;18.160;2023-01-16T04:56:25;99669.33;;;1.55;80.90
76229;BME280;65021;53.174;18.160;2023-01-16T04:58:52;99668.53;;;1.52;80.91
76229;BME280;65021;53.174;18.160;2023-01-16T05:01:20;99667.07;;;1.52;80.90
76229;BME280;65021;53.174;18.160;2023-01-16T05:03:46;99665.28;;;1.53;80.82
76229;BME280;65021;53.174;18.160;2023-01-16T05:06:13;99665.33;;;1.53;80.82
76229;BME280;65021;53.174;18.160;2023-01-16T05:08:40;99668.45;;;1.51;80.86
76229;BME280;65021;53.174;18.160;2023-01-16T05:11:07;99672.91;;;1.51;80.91
76229;BME280;65021;53.174;18.160;2023-01-16T05:13:33;99670.17;;;1.49;80.83
76229;BME280;65021;53.174;18.160;2023-01-16T05:16:00;99667.06;;;1.45;80.93
76229;BME280;65021;53.174;18.160;2023-01-16T05:18:27;99670.16;;;1.41;80.99
76229;BME280;65021;53.174;18.160;2023-01-16T05:20:54;99668.02;;;1.33;81.02
76229;BME280;65021;53.174;18.160;2023-01-16T05:23:20;99668.55;;;1.24;81.16
76229;BME280;65021;53.174;18.160;2023-01-16T05:25:47;99671.59;;;1.16;81.16
76229;BME280;65021;53.174;18.160;2023-01-16T05:28:14;99671.39;;;1.06;81.32
76229;BME280;65021;53.174;18.160;2023-01-16T05:30:41;99674.73;;;0.96;81.45
76229;BME280;65021;53.174;18.160;2023-01-16T05:33:08;99676.16;;;0.86;81.43
76229;BME280;65021;53.174;18.160;2023-01-16T05:35:34;99675.33;;;0.76;81.48
76229;BME280;65021;53.174;18.160;2023-01-16T05:38:03;99674.48;;;0.72;81.46
76229;BME280;65021;53.174;18.160;2023-01-16T05:40:30;99672.54;;;0.69;81.41
76229;BME280;65021;53.174;18.160;2023-01-16T05:42:57;99671.80;;;0.67;81.45
76229;BME280;65021;53.174;18.160;2023-01-16T05:45:24;99670.27;;;0.65;81.55
76229;BME280;65021;53.174;18.160;2023-01-16T05:47:51;99670.21;;;0.63;81.53
76229;BME280;65021;53.174;18.160;2023-01-16T05:50:17;99671.61;;;0.59;81.75
76229;BME280;65021;53.174;18.160;2023-01-16T05:52:44;99667.02;;;0.54;81.74
76229;BME280;65021;53.174;18.160;2023-01-16T05:55:11;99660.50;;;0.50;81.67
76229;BME280;65021;53.174;18.160;2023-01-16T05:57:37;99660.37;;;0.47;81.76
76229;BME280;65021;53.174;18.160;2023-01-16T06:00:05;99657.36;;;0.44;81.82
76229;BME280;65021;53.174;18.160;2023-01-16T06:02:32;99656.73;;;0.40;81.95
76229;BME280;65021;53.174;18.160;2023-01-16T06:04:59;99657.31;;;0.40;81.88
76229;BME280;65021;53.174;18.160;2023-01-16T06:07:26;99662.04;;;0.41;81.87
76229;BME280;65021;53.174;18.160;2023-01-16T06:09:53;99665.48;;;0.43;81.73
76229;BME280;65021;53.174;18.160;2023-01-16T06:12:20;99660.48;;;0.46;81.59
76229;BME280;65021;53.174;18.160;2023-01-16T06:14:46;99658.38;;;0.47;81.68
76229;BME280;65021;53.174;18.160;2023-01-16T06:17:14;99660.73;;;0.46;81.75
76229;BME280;65021;53.174;18.160;2023-01-16T06:19:41;99660.27;;;0.45;81.89
76229;BME280;65021;53.174;18.160;2023-01-16T06:22:08;99664.43;;;0.43;81.94
76229;BME280;65021;53.174;18.160;2023-01-16T06:24:35;99665.57;;;0.40;82.02
76229;BME280;65021;53.174;18.160;2023-01-16T06:27:01;99657.23;;;0.37;82.03
76229;BME280;65021;53.174;18.160;2023-01-16T06:29:28;99664.96;;;0.32;82.03
76229;BME280;65021;53.174;18.160;2023-01-16T06:31:55;99664.32;;;0.29;82.02
76229;BME280;65021;53.174;18.160;2023-01-16T06:34:24;99664.08;;;0.28;82.12
76229;BME280;65021;53.174;18.160;2023-01-16T06:36:52;99660.55;;;0.31;82.08
76229;BME280;65021;53.174;18.160;2023-01-16T06:39:19;99662.27;;;0.33;82.01
76229;BME280;65021;53.174;18.160;2023-01-16T06:41:45;99663.21;;;0.37;81.95
76229;BME280;65021;53.174;18.160;2023-01-16T06:44:12;99658.75;;;0.40;81.80
76229;BME280;65021;53.174;18.160;2023-01-16T06:46:41;99664.73;;;0.43;81.85
76229;BME280;65021;53.174;18.160;2023-01-16T06:49:09;99670.11;;;0.44;82.01
76229;BME280;65021;53.174;18.160;2023-01-16T06:51:36;99673.60;;;0.44;82.08
76229;BME280;65021;53.174;18.160;2023-01-16T06:54:02;99676.63;;;0.43;82.06
76229;BME280;65021;53.174;18.160;2023-01-16T06:56:29;99672.88;;;0.42;82.15
76229;BME280;65021;53.174;18.160;2023-01-16T06:58:56;99674.61;;;0.42;82.17
76229;BME280;65021;53.174;18.160;2023-01-16T07:01:22;99673.34;;;0.42;82.22
76229;BME280;65021;53.174;18.160;2023-01-16T07:03:49;99673.81;;;0.45;82.10
76229;BME280;65021;53.174;18.160;2023-01-16T07:06:15;99671.60;;;0.50;82.06
76229;BME280;65021;53.174;18.160;2023-01-16T07:08:42;99673.74;;;0.56;82.00
76229;BME280;65021;53.174;18.160;2023-01-16T07:11:11;99675.26;;;0.61;81.94
76229;BME280;65021;53.174;18.160;2023-01-16T07:13:38;99676.48;;;0.63;81.90
76229;BME280;65021;53.174;18.160;2023-01-16T07:16:05;99682.29;;;0.66;82.02
76229;BME280;65021;53.174;18.160;2023-01-16T07:18:50;99679.55;;;0.69;82.07
76229;BME280;65021;53.174;18.160;2023-01-16T07:21:36;99673.71;;;0.71;82.18
76229;BME280;65021;53.174;18.160;2023-01-16T07:24:25;99673.84;;;0.73;82.15
76229;BME280;65021;53.174;18.160;2023-01-16T07:26:58;99672.33;;;0.74;82.06
76229;BME280;65021;53.174;18.160;2023-01-16T07:29:28;99674.44;;;0.77;82.10
76229;BME280;65021;53.174;18.160;2023-01-16T07:31:56;99663.57;;;0.83;81.97
76229;BME280;65021;53.174;18.160;2023-01-16T07:34:24;99662.18;;;0.92;81.97
76229;BME280;65021;53.174;18.160;2023-01-16T07:36:51;99656.92;;;1.02;82.00
76229;BME280;65021;53.174;18.160;2023-01-16T07:39:27;99660.95;;;1.14;81.81
76229;BME280;65021;53.174;18.160;2023-01-16T07:41:53;99664.67;;;1.22;81.88
76229;BME280;65021;53.174;18.160;2023-01-16T07:44:20;99663.11;;;1.31;81.78
76229;BME280;65021;53.174;18.160;2023-01-16T07:46:47;99664.27;;;1.40;81.79
76229;BME280;65021;53.174;18.160;2023-01-16T07:49:13;99665.30;;;1.49;81.72
76229;BME280;65021;53.174;18.160;2023-01-16T07:51:40;99665.77;;;1.56;81.70
76229;BME280;65021;53.174;18.160;2023-01-16T07:54:08;99665.29;;;1.62;81.69
76229;BME280;65021;53.174;18.160;2023-01-16T07:56:35;99661.95;;;1.70;81.65
76229;BME280;65021;53.174;18.160;2023-01-16T07:59:02;99657.35;;;1.79;81.58
76229;BME280;65021;53.174;18.160;2023-01-16T08:01:28;99659.80;;;1.87;81.50
76229;BME280;65021;53.174;18.160;2023-01-16T08:03:55;99660.71;;;1.93;81.55
76229;BME280;65021;53.174;18.160;2023-01-16T08:06:22;99662.89;;;2.03;81.31
76229;BME280;65021;53.174;18.160;2023-01-16T08:08:48;99662.77;;;2.14;81.37
76229;BME280;65021;53.174;18.160;2023-01-16T08:11:15;99664.55;;;2.24;81.21
76229;BME280;65021;53.174;18.160;2023-01-16T08:14:01;99659.17;;;2.36;81.11
76229;BME280;65021;53.174;18.160;2023-01-16T08:16:28;99650.13;;;2.44;80.93
76229;BME280;65021;53.174;18.160;2023-01-16T08:18:54;99647.11;;;2.50;80.88
76229;BME280;65021;53.174;18.160;2023-01-16T08:21:21;99647.20;;;2.52;80.79
76229;BME280;65021;53.174;18.160;2023-01-16T08:23:47;99643.10;;;2.54;80.74
76229;BME280;65021;53.174;18.160;2023-01-16T08:26:15;99644.95;;;2.55;80.58
76229;BME280;65021;53.174;18.160;2023-01-16T08:28:42;99651.09;;;2.60;80.66
76229;BME280;65021;53.174;18.160;2023-01-16T08:31:11;99650.42;;;2.68;80.56
76229;BME280;65021;53.174;18.160;2023-01-16T08:33:41;99650.92;;;2.76;80.57
76229;BME280;65021;53.174;18.160;2023-01-16T08:36:10;99645.85;;;2.85;80.64
76229;BME280;65021;53.174;18.160;2023-01-16T08:38:37;99646.40;;;2.90;80.47
76229;BME280;65021;53.174;18.160;2023-01-16T08:41:04;99646.71;;;2.94;80.51
76229;BME280;65021;53.174;18.160;2023-01-16T08:43:31;99642.79;;;2.97;80.45
76229;BME280;65021;53.174;18.160;2023-01-16T08:46:18;99640.39;;;3.06;80.25
76229;BME280;65021;53.174;18.160;2023-01-16T08:49:05;99639.84;;;3.15;80.28
76229;BME280;65021;53.174;18.160;2023-01-16T08:51:55;99638.17;;;3.21;80.01
76229;BME280;65021;53.174;18.160;2023-01-16T08:54:22;99636.95;;;3.25;79.93
76229;BME280;65021;53.174;18.160;2023-01-16T08:56:49;99633.07;;;3.33;79.99
76229;BME280;65021;53.174;18.160;2023-01-16T08:59:16;99630.39;;;3.46;79.92
76229;BME280;65021;53.174;18.160;2023-01-16T09:01:52;99628.81;;;3.55;79.78
76229;BME280;65021;53.174;18.160;2023-01-16T09:04:18;99631.11;;;3.64;79.63
76229;BME280;65021;53.174;18.160;2023-01-16T09:06:45;99631.48;;;3.69;79.40
76229;BME280;65021;53.174;18.160;2023-01-16T09:09:12;99630.20;;;3.74;79.46
76229;BME280;65021;53.174;18.160;2023-01-16T09:11:38;99632.16;;;3.79;79.41
76229;BME280;65021;53.174;18.160;2023-01-16T09:14:23;99635.86;;;3.83;79.28
76229;BME280;65021;53.174;18.160;2023-01-16T09:16:50;99625.88;;;3.84;79.27
76229;BME280;65021;53.174;18.160;2023-01-16T09:19:17;99624.42;;;3.85;79.20
76229;BME280;65021;53.174;18.160;2023-01-16T09:21:43;99624.84;;;3.86;79.05
76229;BME280;65021;53.174;18.160;2023-01-16T09:24:10;99622.96;;;3.90;79.09
76229;BME280;65021;53.174;18.160;2023-01-16T09:26:37;99622.27;;;3.98;79.17
76229;BME280;65021;53.174;18.160;2023-01-16T09:29:03;99625.08;;;4.10;79.02
76229;BME280;65021;53.174;18.160;2023-01-16T09:31:30;99621.03;;;4.18;79.10
76229;BME280;65021;53.174;18.160;2023-01-16T09:33:57;99623.11;;;4.26;79.05
76229;BME280;65021;53.174;18.160;2023-01-16T09:36:23;99624.05;;;4.32;78.76
76229;BME280;65021;53.174;18.160;2023-01-16T09:38:50;99618.27;;;4.38;78.47
76229;BME280;65021;53.174;18.160;2023-01-16T09:41:18;99619.05;;;4.43;78.22
76229;BME280;65021;53.174;18.160;2023-01-16T09:44:07;99618.25;;;4.49;78.35
76229;BME280;65021;53.174;18.160;2023-01-16T09:46:48;99613.71;;;4.65;78.48
76229;BME280;65021;53.174;18.160;2023-01-16T09:49:50;99609.73;;;4.83;77.49
76229;BME280;65021;53.174;18.160;2023-01-16T09:52:22;99606.23;;;5.02;77.70
76229;BME280;65021;53.174;18.160;2023-01-16T09:55:19;99597.23;;;5.15;77.55
76229;BME280;65021;53.174;18.160;2023-01-16T09:58:13;99592.28;;;5.21;77.62
76229;BME280;65021;53.174;18.160;2023-01-16T10:01:00;99589.48;;;5.16;77.40
76229;BME280;65021;53.174;18.160;2023-01-16T10:03:26;99592.52;;;5.10;77.20
76229;BME280;65021;53.174;18.160;2023-01-16T10:05:59;99587.56;;;5.03;77.30
76229;BME280;65021;53.174;18.160;2023-01-16T10:11:14;99577.63;;;4.88;76.61
76229;BME280;65021;53.174;18.160;2023-01-16T10:19:05;99570.65;;;4.60;76.95
76229;BME280;65021;53.174;18.160;2023-01-16T10:25:02;99557.60;;;4.43;76.84
76229;BME280;65021;53.174;18.160;2023-01-16T10:35:42;99551.64;;;4.53;76.33
76229;BME280;65021;53.174;18.160;2023-01-16T10:38:33;99546.13;;;4.56;76.28
76229;BME280;65021;53.174;18.160;2023-01-16T10:41:28;99537.48;;;4.61;76.21
76229;BME280;65021;53.174;18.160;2023-01-16T10:47:15;99531.29;;;4.62;76.28
76229;BME280;65021;53.174;18.160;2023-01-16T10:50:02;99526.13;;;4.56;76.03
76229;BME280;65021;53.174;18.160;2023-01-16T10:52:30;99524.09;;;4.49;76.27
76229;BME280;65021;53.174;18.160;2023-01-16T10:54:58;99520.74;;;4.45;76.16
76229;BME280;65021;53.174;18.160;2023-01-16T10:57:26;99517.45;;;4.45;76.16
76229;BME280;65021;53.174;18.160;2023-01-16T10:59:57;99512.95;;;4.50;76.11
76229;BME280;65021;53.174;18.160;2023-01-16T11:02:44;99508.21;;;4.57;75.85
76229;BME280;65021;53.174;18.160;2023-01-16T11:05:41;99505.75;;;4.57;75.80
76229;BME280;65021;53.174;18.160;2023-01-16T11:08:18;99498.91;;;4.69;76.20
76229;BME280;65021;53.174;18.160;2023-01-16T11:10:47;99496.27;;;4.87;75.86
76229;BME280;65021;53.174;18.160;2023-01-16T11:18:58;99468.85;;;5.07;75.37
76229;BME280;65021;53.174;18.160;2023-01-16T11:21:32;99470.37;;;5.08;75.30
76229;BME280;65021;53.174;18.160;2023-01-16T11:24:06;99462.16;;;5.14;75.21
76229;BME280;65021;53.174;18.160;2023-01-16T11:26:37;99460.91;;;5.13;74.81
76229;BME280;65021;53.174;18.160;2023-01-16T11:29:04;99455.30;;;5.07;74.78
76229;BME280;65021;53.174;18.160;2023-01-16T11:31:30;99451.80;;;5.05;74.96
76229;BME280;65021;53.174;18.160;2023-01-16T11:34:02;99447.00;;;5.00;74.94
76229;BME280;65021;53.174;18.160;2023-01-16T11:36:33;99439.66;;;4.99;75.03
76229;BME280;65021;53.174;18.160;2023-01-16T11:39:01;99436.94;;;4.98;74.77
76229;BME280;65021;53.174;18.160;2023-01-16T11:41:34;99431.55;;;4.99;74.69
76229;BME280;65021;53.174;18.160;2023-01-16T11:44:24;99424.48;;;5.08;74.97
76229;BME280;65021;53.174;18.160;2023-01-16T11:47:16;99417.67;;;5.20;74.88
76229;BME280;65021;53.174;18.160;2023-01-16T11:49:48;99419.39;;;5.20;74.85
76229;BME280;65021;53.174;18.160;2023-01-16T11:52:18;99415.15;;;5.20;75.02
76229;BME280;65021;53.174;18.160;2023-01-16T11:54:58;99413.86;;;5.16;74.82
76229;BME280;65021;53.174;18.160;2023-01-16T12:00:51;99405.16;;;5.20;74.67
76229;BME280;65021;53.174;18.160;2023-01-16T12:06:33;99401.65;;;5.28;74.26
76229;BME280;65021;53.174;18.160;2023-01-16T12:11:50;99395.16;;;5.37;74.08
76229;BME280;65021;53.174;18.160;2023-01-16T12:14:33;99386.05;;;5.39;74.09
76229;BME280;65021;53.174;18.160;2023-01-16T12:20:16;99357.86;;;5.40;73.72
76229;BME280;65021;53.174;18.160;2023-01-16T12:22:49;99352.06;;;5.40;73.69
76229;BME280;65021;53.174;18.160;2023-01-16T12:28:53;99342.91;;;5.58;73.35
76229;BME280;65021;53.174;18.160;2023-01-16T12:31:27;99337.61;;;5.63;73.30
76229;BME280;65021;53.174;18.160;2023-01-16T12:45:27;99315.80;;;6.07;73.12
76229;BME280;65021;53.174;18.160;2023-01-16T12:58:50;99294.98;;;6.05;72.73
76229;BME280;65021;53.174;18.160;2023-01-16T13:01:28;99289.19;;;5.98;72.22
76229;BME280;65021;53.174;18.160;2023-01-16T13:06:57;99284.09;;;5.70;71.80
76229;BME280;65021;53.174;18.160;2023-01-16T13:09:56;99283.34;;;5.55;71.87
76229;BME280;65021;53.174;18.160;2023-01-16T13:12:44;99289.65;;;5.38;71.81
76229;BME280;65021;53.174;18.160;2023-01-16T13:15:36;99285.55;;;5.34;72.16
76229;BME280;65021;53.174;18.160;2023-01-16T13:18:16;99283.80;;;5.32;71.97
76229;BME280;65021;53.174;18.160;2023-01-16T13:20:52;99278.66;;;5.33;71.78
76229;BME280;65021;53.174;18.160;2023-01-16T13:23:21;99273.17;;;5.32;71.99
76229;BME280;65021;53.174;18.160;2023-01-16T13:26:01;99276.95;;;5.30;71.61
76229;BME280;65021;53.174;18.160;2023-01-16T13:33:56;99267.11;;;5.28;71.92
76229;BME280;65021;53.174;18.160;2023-01-16T13:36:35;99262.53;;;5.31;72.37
76229;BME280;65021;53.174;18.160;2023-01-16T13:42:08;99246.58;;;5.36;72.23
76229;BME280;65021;53.174;18.160;2023-01-16T13:44:38;99247.48;;;5.30;72.19
76229;BME280;65021;53.174;18.160;2023-01-16T13:47:28;99245.86;;;5.22;71.99
76229;BME280;65021;53.174;18.160;2023-01-16T13:50:23;99242.54;;;5.16;72.01
76229;BME280;65021;53.174;18.160;2023-01-16T13:52:54;99239.15;;;5.08;72.14
76229;BME280;65021;53.174;18.160;2023-01-16T13:55:36;99235.62;;;5.05;72.15
76229;BME280;65021;53.174;18.160;2023-01-16T13:58:15;99230.50;;;4.99;72.33
76229;BME280;65021;53.174;18.160;2023-01-16T14:00:44;99226.23;;;4.91;72.49
76229;BME280;65021;53.174;18.160;2023-01-16T14:03:30;99223.20;;;4.83;72.52
76229;BME280;65021;53.174;18.160;2023-01-16T14:14:21;99210.00;;;4.57;72.93
76229;BME280;65021;53.174;18.160;2023-01-16T14:17:27;99210.48;;;4.48;73.13
76229;BME280;65021;53.174;18.160;2023-01-16T14:19:59;99207.73;;;4.40;73.38
76229;BME280;65021;53.174;18.160;2023-01-16T14:22:39;99209.58;;;4.30;73.48
76229;BME280;65021;53.174;18.160;2023-01-16T14:25:17;99209.35;;;4.20;73.50
76229;BME280;65021;53.174;18.160;2023-01-16T14:27:49;99213.45;;;4.14;73.82
76229;BME280;65021;53.174;18.160;2023-01-16T14:30:19;99211.57;;;4.05;73.97
76229;BME280;65021;53.174;18.160;2023-01-16T14:32:52;99215.75;;;4.00;74.12
76229;BME280;65021;53.174;18.160;2023-01-16T14:35:25;99214.16;;;3.90;74.31
76229;BME280;65021;53.174;18.160;2023-01-16T14:37:58;99205.63;;;3.85;74.42
76229;BME280;65021;53.174;18.160;2023-01-16T14:40:28;99203.86;;;3.82;74.87
76229;BME280;65021;53.174;18.160;2023-01-16T14:43:26;99203.98;;;3.75;74.73
76229;BME280;65021;53.174;18.160;2023-01-16T14:58:32;99187.23;;;3.36;75.33
76229;BME280;65021;53.174;18.160;2023-01-16T15:01:02;99188.42;;;3.26;75.66
76229;BME280;65021;53.174;18.160;2023-01-16T15:04:00;99183.56;;;3.18;75.68
76229;BME280;65021;53.174;18.160;2023-01-16T15:06:34;99177.97;;;3.12;75.62
76229;BME280;65021;53.174;18.160;2023-01-16T15:09:02;99175.99;;;3.07;75.71
76229;BME280;65021;53.174;18.160;2023-01-16T15:11:31;99167.55;;;3.01;75.87
76229;BME280;65021;53.174;18.160;2023-01-16T15:14:18;99169.32;;;2.95;75.96
76229;BME280;65021;53.174;18.160;2023-01-16T15:17:05;99163.38;;;2.86;75.98
76229;BME280;65021;53.174;18.160;2023-01-16T15:20:15;99163.41;;;2.77;76.49
76229;BME280;65021;53.174;18.160;2023-01-16T15:23:02;99158.44;;;2.71;76.48
76229;BME280;65021;53.174;18.160;2023-01-16T15:28:21;99150.95;;;2.63;76.35
76229;BME280;65021;53.174;18.160;2023-01-16T15:31:07;99144.12;;;2.60;76.43
76229;BME280;65021;53.174;18.160;2023-01-16T15:33:35;99145.25;;;2.55;76.56
76229;BME280;65021;53.174;18.160;2023-01-16T15:36:25;99143.58;;;2.50;76.61
76229;BME280;65021;53.174;18.160;2023-01-16T15:42:01;99142.59;;;2.32;76.90
76229;BME280;65021;53.174;18.160;2023-01-16T15:44:47;99140.48;;;2.30;77.11
76229;BME280;65021;53.174;18.160;2023-01-16T15:50:39;99127.38;;;2.31;77.58
76229;BME280;65021;53.174;18.160;2023-01-16T15:53:07;99124.23;;;2.28;77.93